Time;durP1;ratioP1;P1;durP2;ratioP2;P2;SDS_P1;SDS_P2;PMS_P1;PMS_P2;Temp;Humidity;BMP_temperature;BMP_pressure;BME280_temperature;BME280_humidity;BME280_pressure;Samples;Min_cycle;Max_cycle;Signal;HPM_P1;HPM_P2
2022/08/26 00:04:36;;;;;;;23.40;10.05;;;;;;;17.49;95.88;97261.72;10328554;28;20072;-56
2022/08/26 00:09:35;;;;;;;23.10;10.57;;;;;;;17.43;95.98;97256.72;10328671;28;20041;-56
2022/08/26 00:14:34;;;;;;;19.70;9.70;;;;;;;17.41;95.96;97259.38;10327044;28;20099;-56
2022/08/26 00:19:33;;;;;;;23.60;10.13;;;;;;;17.35;96.30;97255.22;10328432;28;20077;-56
2022/08/26 00:24:32;;;;;;;18.88;9.43;;;;;;;17.20;96.81;97245.28;10328297;28;20030;-56
2022/08/26 00:29:33;;;;;;;19.45;10.00;;;;;;;17.23;96.95;97254.81;10327819;28;20076;-56
2022/08/26 00:34:32;;;;;;;22.55;10.75;;;;;;;17.08;97.62;97230.00;10327887;28;20077;-56
2022/08/26 00:39:31;;;;;;;17.88;9.57;;;;;;;17.11;97.74;97250.84;10328038;28;20060;-56
2022/08/26 00:44:30;;;;;;;25.63;9.93;;;;;;;17.06;97.67;97234.44;10330798;28;20049;-56
2022/08/26 00:49:35;;;;;;;;;;;;;;;17.09;97.62;97242.19;10335735;28;20041;-56
2022/08/26 00:54:39;;;;;;;23.13;10.57;;;;;;;17.05;97.75;97241.44;10335303;28;20394;-56
2022/08/26 00:59:39;;;;;;;27.10;12.05;;;;;;;16.96;97.85;97236.53;10335295;28;20092;-56
2022/08/26 01:04:39;;;;;;;33.60;13.25;;;;;;;16.83;98.73;97240.47;10334713;28;20068;-56
2022/08/26 01:09:38;;;;;;;19.42;10.65;;;;;;;16.64;99.43;97242.81;10334913;28;20120;-56
2022/08/26 01:14:39;;;;;;;24.60;12.50;;;;;;;16.58;99.57;97240.41;10334385;28;20080;-56
2022/08/26 01:19:44;;;;;;;23.95;11.60;;;;;;;16.56;99.50;97245.72;10334116;28;20076;-56
2022/08/26 01:24:44;;;;;;;27.48;11.80;;;;;;;16.47;99.57;97244.25;10334198;28;20057;-56
2022/08/26 01:29:45;;;;;;;21.67;11.50;;;;;;;16.44;99.69;97249.59;10334210;28;20075;-56
2022/08/26 01:34:46;;;;;;;23.02;12.23;;;;;;;16.37;100.00;97253.31;10333699;28;20084;-56
2022/08/26 01:39:52;;;;;;;40.70;13.18;;;;;;;16.36;100.00;97255.97;10333495;28;20466;-56
2022/08/26 01:44:54;;;;;;;28.42;12.45;;;;;;;16.30;100.00;97252.66;10334442;28;20081;-56
2022/08/26 01:49:55;;;;;;;26.65;12.23;;;;;;;16.24;100.00;97237.13;10336384;28;20068;-56
2022/08/26 01:54:55;;;;;;;23.50;13.32;;;;;;;16.30;100.00;97241.28;10335699;28;20057;-56
2022/08/26 01:59:58;;;;;;;28.95;12.77;;;;;;;16.29;100.00;97243.06;10336398;28;20456;-56
2022/08/26 02:05:02;;;;;;;26.83;12.82;;;;;;;16.28;100.00;97245.75;10336494;28;20065;-56
2022/08/26 02:10:01;;;;;;;28.83;13.77;;;;;;;16.27;100.00;97241.41;10335612;28;20515;-59
2022/08/26 02:15:04;;;;;;;22.52;12.85;;;;;;;16.30;100.00;97236.06;10335790;28;20442;-56
2022/08/26 02:20:03;;;;;;;28.42;12.75;;;;;;;16.27;100.00;97238.78;10335068;28;20096;-56
2022/08/26 02:25:21;;;;;;;27.60;13.30;;;;;;;16.25;100.00;97243.22;10335145;28;20072;-58
2022/08/26 02:30:27;;;;;;;24.10;12.25;;;;;;;16.19;100.00;97225.09;10335284;28;20069;-56
2022/08/26 02:35:26;;;;;;;28.80;13.00;;;;;;;16.18;100.00;97242.53;10334682;28;20487;-56
2022/08/26 02:40:30;;;;;;;30.58;13.50;;;;;;;16.15;100.00;97239.19;10335265;28;20057;-56
2022/08/26 02:45:29;;;;;;;25.17;12.02;;;;;;;16.01;100.00;97234.38;10333655;28;20127;-56
2022/08/26 02:50:29;;;;;;;25.70;11.65;;;;;;;15.98;100.00;97237.94;10330481;28;20499;-56
2022/08/26 02:55:27;;;;;;;;;;;;;;;15.94;100.00;97238.09;10330889;28;20495;-56
2022/08/26 03:00:27;;;;;;;21.10;10.40;;;;;;;15.87;100.00;97240.88;10330264;28;20403;-56
2022/08/26 03:05:26;;;;;;;23.83;11.27;;;;;;;15.81;100.00;97237.59;10329148;28;20490;-56
2022/08/26 03:10:25;;;;;;;;;;;;;;;15.72;100.00;97241.34;10330151;28;20080;-56
2022/08/26 03:15:25;;;;;;;20.97;11.00;;;;;;;15.62;100.00;97243.38;10330123;28;19916;-56
2022/08/26 03:20:24;;;;;;;25.95;11.93;;;;;;;15.59;100.00;97253.91;10329897;28;20061;-56
2022/08/26 03:25:24;;;;;;;;;;;;;;;15.55;100.00;97259.25;10330059;28;20068;-56
2022/08/26 03:30:41;;;;;;;20.45;10.60;;;;;;;15.49;100.00;97260.31;10329324;28;19967;-56
2022/08/26 03:35:43;;;;;;;21.25;10.45;;;;;;;15.42;100.00;97264.84;10329598;28;20073;-56
2022/08/26 03:40:42;;;;;;;22.83;11.80;;;;;;;15.32;100.00;97257.28;10328728;28;20072;-56
2022/08/26 03:45:42;;;;;;;21.38;11.35;;;;;;;15.40;100.00;97268.41;10329081;28;20085;-56
2022/08/26 03:50:41;;;;;;;24.83;11.35;;;;;;;15.40;100.00;97276.25;10328387;28;20092;-56
2022/08/26 03:55:41;;;;;;;24.27;11.77;;;;;;;15.41;100.00;97275.34;10328799;28;20065;-56
2022/08/26 04:00:40;;;;;;;21.73;11.10;;;;;;;15.43;100.00;97278.78;10328813;28;20141;-56
2022/08/26 04:05:39;;;;;;;27.83;12.77;;;;;;;15.49;100.00;97267.28;10328368;28;20470;-56
2022/08/26 04:10:38;;;;;;;;;;;;;;;15.55;100.00;97268.00;10328369;28;20052;-56
2022/08/26 04:15:38;;;;;;;21.88;12.43;;;;;;;15.62;100.00;97263.41;10328030;28;20012;-56
2022/08/26 04:20:38;;;;;;;24.20;12.25;;;;;;;15.66;100.00;97273.75;10334172;28;20065;-56
2022/08/26 04:25:36;;;;;;;25.52;12.98;;;;;;;15.78;100.00;97269.06;10335608;28;20585;-56
2022/08/26 04:30:36;;;;;;;;;;;;;;;15.85;100.00;97261.00;10335812;28;20038;-56
2022/08/26 04:35:35;;;;;;;25.05;12.57;;;;;;;15.88;100.00;97267.94;10334939;28;19952;-56
2022/08/26 04:40:35;;;;;;;34.40;12.70;;;;;;;15.86;100.00;97264.50;10334610;28;20069;-56
2022/08/26 04:45:38;;;;;;;25.42;12.32;;;;;;;16.01;100.00;97278.88;10335816;28;20542;-56
2022/08/26 04:50:37;;;;;;;31.05;12.00;;;;;;;15.98;100.00;97277.19;10338491;28;20519;-56
2022/08/26 04:55:38;;;;;;;;;;;;;;;16.04;100.00;97277.03;10325921;28;20525;-56
2022/08/26 05:00:37;;;;;;;29.20;10.75;;;;;;;16.05;100.00;97283.97;10338448;28;19941;-56
2022/08/26 05:05:41;;;;;;;20.13;10.70;;;;;;;16.12;100.00;97283.78;10338332;28;20068;-56
2022/08/26 05:10:52;;;;;;;21.02;9.93;;;;;;;16.14;100.00;97284.56;10331597;28;20515;-56
2022/08/26 05:15:51;;;;;;;12.57;8.90;;;;;;;16.27;99.95;97283.28;10332061;28;20080;-56
2022/08/26 05:20:52;;;;;;;20.10;10.10;;;;;;;16.30;99.78;97280.56;10338524;28;20076;-56
2022/08/26 05:25:53;;;;;;;37.65;11.88;;;;;;;16.25;99.60;97270.25;10337039;28;20057;-56
2022/08/26 05:30:54;;;;;;;23.42;10.40;;;;;;;16.47;99.82;97274.81;10335131;28;20487;-56
2022/08/26 05:35:52;;;;;;;25.95;10.55;;;;;;;16.62;99.60;97284.78;10335790;28;20111;-58
2022/08/26 05:40:51;;;;;;;19.10;9.98;;;;;;;16.80;99.16;97274.63;10336634;28;20036;-57
2022/08/26 05:45:50;;;;;;;;;;;;;;;17.03;98.66;97273.88;10335633;28;20045;-56
2022/08/26 05:50:51;;;;;;;23.77;10.60;;;;;;;17.17;98.06;97282.09;10333503;28;19916;-57
2022/08/26 05:55:53;;;;;;;20.83;10.75;;;;;;;17.37;97.75;97283.16;10332583;28;20065;-57
2022/08/26 06:01:13;;;;;;;25.67;10.73;;;;;;;17.62;96.74;97286.59;10332306;28;20513;-57
2022/08/26 06:06:21;;;;;;;26.17;9.43;;;;;;;17.86;95.60;97282.22;10332285;28;20076;-57
2022/08/26 06:11:25;;;;;;;27.88;10.45;;;;;;;18.10;95.06;97285.69;10332319;28;20068;-57
2022/08/26 06:16:24;;;;;;;25.27;9.55;;;;;;;18.36;92.95;97281.19;10331035;28;20076;-57
2022/08/26 06:21:26;;;;;;;26.45;8.88;;;;;;;18.52;92.06;97271.75;10332092;28;20033;-57
2022/08/26 06:26:26;;;;;;;27.05;9.23;;;;;;;18.63;90.66;97283.63;10332576;28;20093;-57
2022/08/26 06:31:25;;;;;;;22.95;8.93;;;;;;;18.79;89.51;97285.59;10330527;28;20116;-57
2022/08/26 06:36:27;;;;;;;24.48;9.13;;;;;;;19.07;88.56;97294.09;10334998;28;20077;-57
2022/08/26 06:41:26;;;;;;;27.13;8.57;;;;;;;19.28;87.86;97287.06;10329970;28;20123;-57
2022/08/26 06:46:26;;;;;;;26.67;9.25;;;;;;;19.60;86.22;97285.66;10338312;28;20502;-57
2022/08/26 06:51:28;;;;;;;29.02;9.40;;;;;;;19.86;84.76;97297.63;10336782;28;20460;-57
2022/08/26 06:56:34;;;;;;;21.02;8.40;;;;;;;20.18;84.53;97297.94;10285149;28;20074;-57
2022/08/26 07:01:36;;;;;;;24.08;7.95;;;;;;;20.46;83.38;97301.00;10290381;28;20117;-57
2022/08/26 07:06:39;;;;;;;23.00;8.32;;;;;;;20.74;81.81;97296.16;10315527;28;20077;-57
2022/08/26 07:11:38;;;;;;;23.23;8.48;;;;;;;20.95;80.33;97297.75;10329516;28;20486;-57
2022/08/26 07:16:39;;;;;;;26.75;9.07;;;;;;;21.18;78.87;97279.91;10327399;28;20089;-57
2022/08/26 07:21:40;;;;;;;26.67;8.43;;;;;;;21.40;77.71;97287.59;10329262;28;20068;-57
2022/08/26 07:26:39;;;;;;;19.73;7.03;;;;;;;21.68;76.17;97292.25;10326663;28;20500;-57
2022/08/26 07:31:38;;;;;;;26.13;7.57;;;;;;;21.92;74.62;97290.97;10325588;28;20522;-57
2022/08/26 07:36:37;;;;;;;19.10;7.20;;;;;;;22.24;73.58;97285.72;10325723;28;20076;-58
2022/08/26 07:41:36;;;;;;;20.52;7.15;;;;;;;22.44;70.70;97286.41;10328378;28;20487;-58
2022/08/26 07:46:35;;;;;;;22.45;8.05;;;;;;;22.43;68.79;97285.53;10328855;28;20453;-58
2022/08/26 07:51:35;;;;;;;14.88;6.65;;;;;;;22.60;70.27;97287.25;10327898;28;20030;-58
2022/08/26 07:56:35;;;;;;;18.83;7.10;;;;;;;22.84;68.87;97285.00;10328292;28;20077;-58
2022/08/26 08:01:34;;;;;;;18.85;6.65;;;;;;;23.04;66.92;97275.03;10323594;28;20647;-58
2022/08/26 08:06:33;;;;;;;19.00;6.70;;;;;;;23.29;64.90;97271.78;10327173;28;20495;-57
2022/08/26 08:11:32;;;;;;;18.38;6.05;;;;;;;23.46;61.42;97266.31;10327976;28;20077;-58
2022/08/26 08:16:31;;;;;;;16.75;6.65;;;;;;;23.77;63.14;97260.03;10329808;28;20033;-58
2022/08/26 08:21:30;;;;;;;22.80;6.13;;;;;;;24.08;61.84;97262.53;10322249;28;20038;-58
2022/08/26 08:26:29;;;;;;;15.70;5.18;;;;;;;24.24;55.59;97248.25;10324141;28;20072;-58
2022/08/26 08:31:31;;;;;;;14.07;5.20;;;;;;;24.45;57.29;97256.59;10323636;28;20033;-58
2022/08/26 08:36:30;;;;;;;13.88;5.20;;;;;;;24.62;55.53;97249.34;10326844;28;20073;-58
2022/08/26 08:41:50;;;;;;;17.95;5.43;;;;;;;24.69;54.46;97248.81;10326692;28;20037;-58
2022/08/26 08:46:54;;;;;;;20.10;5.30;;;;;;;24.77;53.24;97245.66;10326547;28;20103;-57
2022/08/26 08:51:55;;;;;;;21.73;5.68;;;;;;;24.76;50.75;97243.13;10328179;28;20069;-57
2022/08/26 08:57:13;;;;;;;14.60;5.50;;;;;;;24.74;50.59;97243.22;10326997;28;20079;-57
2022/08/26 09:02:12;;;;;;;14.32;4.82;;;;;;;24.76;50.40;97238.66;10328768;28;20471;-57
2022/08/26 09:07:17;;;;;;;25.58;5.88;;;;;;;24.68;49.39;97233.88;10316435;28;20478;-57
2022/08/26 09:12:23;;;;;;;15.68;5.82;;;;;;;24.62;50.09;97212.19;10327283;28;20068;-57
2022/08/26 09:17:22;;;;;;;14.57;5.43;;;;;;;24.62;47.85;97231.63;10329065;28;20589;-57
2022/08/26 09:22:30;;;;;;;15.15;4.88;;;;;;;24.79;48.64;97226.97;10339481;28;20080;-57
2022/08/26 09:27:38;;;;;;;15.77;5.07;;;;;;;24.80;47.07;97232.19;10336218;28;20785;-57
2022/08/26 09:32:37;;;;;;;17.23;5.28;;;;;;;25.01;47.57;97219.31;10335116;28;20129;-56
2022/08/26 09:37:46;;;;;;;13.18;4.60;;;;;;;25.32;46.40;97212.75;10335810;28;20068;-57
2022/08/26 09:42:45;;;;;;;16.55;5.22;;;;;;;25.58;44.85;97196.81;10331253;28;20076;-59
2022/08/26 09:47:44;;;;;;;35.28;24.40;;;;;;;25.65;45.22;97195.41;10335495;28;20073;-57
2022/08/26 09:52:43;;;;;;;21.58;10.55;;;;;;;25.74;45.08;97199.25;10337199;28;20037;-58
2022/08/26 09:57:51;;;;;;;14.98;6.85;;;;;;;25.96;44.99;97195.88;10348229;28;20066;-58
2022/08/26 10:02:50;;;;;;;16.20;6.72;;;;;;;25.82;41.56;97190.72;10337537;28;20084;-57
2022/08/26 10:07:50;;;;;;;15.90;5.22;;;;;;;25.81;42.57;97192.53;10317972;28;20132;-58
2022/08/26 10:13:13;;;;;;;16.52;5.93;;;;;;;25.99;41.88;97187.66;10321721;28;20076;-58
2022/08/26 10:18:26;;;;;;;16.80;6.18;;;;;;;26.16;41.81;97194.44;10331769;28;20080;-57
2022/08/26 10:23:29;;;;;;;13.38;6.53;;;;;;;26.24;40.38;97188.56;10329475;28;20065;-57
2022/08/26 10:28:48;;;;;;;20.17;10.43;;;;;;;26.44;41.88;97185.28;10336065;28;20057;-57
2022/08/26 10:33:48;;;;;;;17.00;6.97;;;;;;;26.68;42.67;97189.75;10335685;28;20072;-57
2022/08/26 10:38:47;;;;;;;19.20;6.82;;;;;;;26.73;42.59;97180.44;10325820;28;20073;-57
2022/08/26 10:43:49;;;;;;;13.02;5.93;;;;;;;26.85;42.82;97178.69;10322233;28;20088;-57
2022/08/26 10:49:05;;;;;;;12.18;5.68;;;;;;;27.04;41.78;97180.78;10309626;28;20073;-57
2022/08/26 10:54:26;;;;;;;19.95;6.60;;;;;;;27.27;42.55;97171.00;10315022;28;20468;-57
2022/08/26 10:59:49;;;;;;;17.10;5.50;;;;;;;27.58;40.99;97171.28;10317743;28;20816;-57
2022/08/26 11:04:59;;;;;;;16.38;5.80;;;;;;;27.80;40.53;97157.09;10317465;28;21264;-58
2022/08/26 11:10:01;;;;;;;13.70;5.60;;;;;;;27.89;39.55;97159.00;10330260;28;20077;-58
2022/08/26 11:15:01;;;;;;;15.93;6.30;;;;;;;28.13;38.69;97156.19;10330824;28;20076;-58
2022/08/26 11:20:02;;;;;;;13.52;5.30;;;;;;;28.34;39.31;97148.25;10329571;28;20069;-58
2022/08/26 11:25:07;;;;;;;20.63;6.28;;;;;;;28.37;37.45;97141.81;10329783;28;20076;-57
2022/08/26 11:30:11;;;;;;;19.02;5.95;;;;;;;28.21;36.07;97140.38;10328542;28;20121;-57
2022/08/26 11:35:22;;;;;;;13.75;5.95;;;;;;;28.47;38.69;97126.69;10328359;28;20124;-57
2022/08/26 11:40:28;;;;;;;17.00;5.50;;;;;;;28.68;37.21;97137.44;10327973;28;20121;-57
2022/08/26 11:45:37;;;;;;;19.17;9.27;;;;;;;28.78;35.43;97124.13;10330795;28;20076;-57
2022/08/26 11:50:37;;;;;;;15.82;6.10;;;;;;;28.72;32.81;97109.50;10331157;28;20075;-57
2022/08/26 11:55:42;;;;;;;15.18;5.85;;;;;;;28.78;33.93;97124.13;10330336;28;20511;-58
2022/08/26 12:00:51;;;;;;;15.30;5.28;;;;;;;28.92;33.40;97112.28;10331494;28;20545;-56
2022/08/26 12:05:52;;;;;;;12.77;5.32;;;;;;;29.23;33.09;97099.78;10330712;28;20073;-57
2022/08/26 12:11:08;;;;;;;11.63;4.68;;;;;;;29.29;31.92;97101.94;10330387;28;20833;-57
2022/08/26 12:16:07;;;;;;;14.95;5.15;;;;;;;29.38;31.71;97085.09;10310554;28;20073;-59
2022/08/26 12:21:21;;;;;;;16.70;4.05;;;;;;;29.27;29.33;97079.84;10309533;28;20061;-57
2022/08/26 12:26:29;;;;;;;8.15;4.18;;;;;;;29.35;27.42;97088.06;10330615;28;20524;-58
2022/08/26 12:31:32;;;;;;;12.40;4.43;;;;;;;29.37;27.67;97086.09;10328855;28;20610;-57
2022/08/26 12:36:40;;;;;;;8.23;4.30;;;;;;;29.26;27.81;97076.34;10330640;28;20072;-56
2022/08/26 12:41:39;;;;;;;11.73;4.45;;;;;;;28.97;27.49;97078.88;10317083;28;20485;-57
2022/08/26 12:46:38;;;;;;;13.65;4.22;;;;;;;29.12;27.00;97079.34;10318724;28;20465;-57
2022/08/26 12:51:40;;;;;;;14.70;4.55;;;;;;;29.33;28.10;97083.81;10316664;28;20069;-57
2022/08/26 12:56:40;;;;;;;12.25;4.40;;;;;;;29.57;28.73;97076.28;10339355;28;20081;-57
2022/08/26 13:01:41;;;;;;;17.08;5.25;;;;;;;29.72;28.16;97084.78;10341376;28;20076;-57
2022/08/26 13:06:40;;;;;;;12.43;4.50;;;;;;;29.72;26.88;97082.09;10331796;28;20496;-56
2022/08/26 13:11:39;;;;;;;9.75;3.95;;;;;;;29.77;27.50;97079.03;10333491;28;20475;-56
2022/08/26 13:16:42;;;;;;;11.50;4.05;;;;;;;29.79;27.06;97079.69;10338901;28;20446;-57
2022/08/26 13:21:47;;;;;;;7.78;3.80;;;;;;;29.71;27.02;97067.88;10338804;28;20057;-57
2022/08/26 13:26:48;;;;;;;9.93;4.43;;;;;;;29.48;27.11;97066.41;10338513;28;20073;-57
2022/08/26 13:31:47;;;;;;;10.20;3.65;;;;;;;29.32;27.62;97064.28;10335966;28;20076;-57
2022/08/26 13:36:48;;;;;;;11.88;3.95;;;;;;;29.16;27.88;97061.25;10315876;28;20057;-57
2022/08/26 13:41:48;;;;;;;13.90;4.97;;;;;;;29.11;28.67;97055.41;10319992;28;20065;-57
2022/08/26 13:46:47;;;;;;;13.18;3.60;;;;;;;28.98;27.84;97063.69;10310368;28;20078;-57
2022/08/26 13:51:46;;;;;;;11.98;4.32;;;;;;;29.09;28.35;97061.75;10311207;28;20034;-58
2022/08/26 13:56:45;;;;;;;35.75;22.20;;;;;;;29.14;28.47;97053.34;10316765;28;20033;-57
2022/08/26 14:01:44;;;;;;;12.10;4.35;;;;;;;29.21;27.97;97064.34;10294582;28;20100;-57
2022/08/26 14:06:43;;;;;;;13.25;5.88;;;;;;;29.07;27.00;97055.69;10294366;28;20069;-56
2022/08/26 14:11:42;;;;;;;12.40;3.97;;;;;;;29.01;27.04;97061.56;10293310;28;20065;-56
2022/08/26 14:16:41;;;;;;;15.52;3.88;;;;;;;28.97;27.23;97057.50;10331984;28;20034;-56
2022/08/26 14:21:40;;;;;;;12.68;3.58;;;;;;;29.03;27.98;97061.44;10333223;28;20139;-56
2022/08/26 14:26:39;;;;;;;13.55;4.13;;;;;;;29.05;27.33;97052.31;10320220;28;20501;-56
2022/08/26 14:31:38;;;;;;;8.98;3.83;;;;;;;28.96;27.12;97058.47;10331274;28;20073;-56
2022/08/26 14:36:37;;;;;;;14.20;3.58;;;;;;;28.88;27.66;97059.13;10332928;28;20459;-56
2022/08/26 14:41:52;;;;;;;11.93;4.05;;;;;;;28.89;28.01;97059.97;10334095;28;20061;-57
2022/08/26 14:46:53;;;;;;;9.65;3.13;;;;;;;28.95;28.03;97055.94;10332473;28;20084;-57
2022/08/26 14:51:53;;;;;;;11.32;4.20;;;;;;;28.96;28.53;97053.13;10332612;28;20091;-57
2022/08/26 14:56:55;;;;;;;8.73;3.47;;;;;;;28.87;28.30;97056.59;10332359;28;20144;-56
2022/08/26 15:01:55;;;;;;;17.63;4.53;;;;;;;28.77;28.22;97063.72;10313272;28;20061;-56
2022/08/26 15:06:56;;;;;;;13.85;3.70;;;;;;;28.75;27.82;97063.84;10310503;28;20133;-56
2022/08/26 15:11:55;;;;;;;9.30;3.25;;;;;;;28.53;27.32;97059.47;10329897;28;20068;-56
2022/08/26 15:16:55;;;;;;;11.13;3.67;;;;;;;28.41;28.25;97056.03;10330006;28;20515;-56
2022/08/26 15:21:55;;;;;;;9.05;3.78;;;;;;;28.34;28.54;97064.69;10330939;28;20072;-57
2022/08/26 15:26:54;;;;;;;16.25;4.78;;;;;;;28.41;29.27;97052.50;10330996;28;20478;-57
2022/08/26 15:31:53;;;;;;;10.05;3.60;;;;;;;28.28;29.54;97057.19;10323350;28;20117;-56
2022/08/26 15:36:52;;;;;;;10.23;3.95;;;;;;;28.14;30.52;97053.84;10318733;28;20491;-57
2022/08/26 15:41:51;;;;;;;13.10;3.83;;;;;;;28.04;31.05;97052.91;10331281;28;20514;-56
2022/08/26 15:46:50;;;;;;;13.57;4.10;;;;;;;27.81;31.31;97038.78;10325427;28;20504;-57
2022/08/26 15:51:49;;;;;;;10.02;4.30;;;;;;;27.73;31.30;97034.09;10297541;28;20032;-57
2022/08/26 15:56:50;;;;;;;9.88;3.80;;;;;;;27.62;30.99;97042.13;10292838;28;20052;-56
2022/08/26 16:01:50;;;;;;;10.80;5.22;;;;;;;27.56;30.88;97037.28;10294027;28;20072;-56
2022/08/26 16:06:50;;;;;;;14.45;5.00;;;;;;;27.61;30.85;97030.63;10315967;28;20526;-57
2022/08/26 16:11:50;;;;;;;13.98;5.70;;;;;;;27.69;31.17;97038.00;10334477;28;20073;-57
2022/08/26 16:16:49;;;;;;;11.45;4.22;;;;;;;27.72;32.95;97047.56;10341181;28;20069;-57
2022/08/26 16:21:50;;;;;;;14.35;5.90;;;;;;;27.49;34.92;97046.75;10341720;28;20068;-56
2022/08/26 16:26:49;;;;;;;15.70;5.50;;;;;;;27.32;36.74;97048.09;10342187;28;20191;-57
2022/08/26 16:31:52;;;;;;;13.38;4.97;;;;;;;27.09;37.92;97050.75;10342481;28;20176;-56
2022/08/26 16:36:51;;;;;;;13.63;5.13;;;;;;;26.85;37.99;97045.56;10337882;28;20491;-57
2022/08/26 16:41:49;;;;;;;13.75;5.82;;;;;;;26.66;38.90;97045.28;10342097;28;20073;-56
2022/08/26 16:46:49;;;;;;;13.88;5.80;;;;;;;26.44;39.13;97054.94;10339522;28;20072;-57
2022/08/26 16:51:49;;;;;;;12.82;5.50;;;;;;;26.25;39.91;97060.78;10338361;28;20084;-57
2022/08/26 16:56:48;;;;;;;13.88;5.88;;;;;;;26.05;39.96;97070.25;10333853;28;20515;-57
2022/08/26 17:01:47;;;;;;;13.05;5.45;;;;;;;25.79;41.51;97063.38;10326858;28;20530;-56
2022/08/26 17:06:46;;;;;;;18.80;5.05;;;;;;;25.43;41.97;97051.75;10330029;28;20574;-56
2022/08/26 17:11:45;;;;;;;8.60;4.18;;;;;;;25.01;43.05;97051.22;10330993;28;20153;-56
2022/08/26 17:16:45;;;;;;;18.20;5.28;;;;;;;24.63;43.96;97063.50;10331019;28;20109;-57
2022/08/26 17:21:45;;;;;;;13.63;5.13;;;;;;;24.27;44.89;97067.72;10334548;28;20068;-57
2022/08/26 17:26:44;;;;;;;11.85;5.22;;;;;;;23.93;45.58;97073.53;10330332;28;20459;-57
2022/08/26 17:31:43;;;;;;;19.10;5.40;;;;;;;23.63;45.92;97075.47;10332564;28;20084;-57
2022/08/26 17:36:42;;;;;;;13.02;5.45;;;;;;;23.42;46.50;97084.75;10333227;28;20076;-57
2022/08/26 17:41:42;;;;;;;11.38;4.65;;;;;;;23.13;46.97;97082.13;10332659;28;20061;-57
2022/08/26 17:46:41;;;;;;;10.25;5.20;;;;;;;22.95;47.15;97089.44;10331935;28;20084;-57
2022/08/26 17:51:40;;;;;;;9.82;5.20;;;;;;;22.76;47.60;97089.72;10333467;28;20057;-57
2022/08/26 17:56:39;;;;;;;14.23;5.38;;;;;;;22.63;47.57;97106.38;10332613;28;20032;-57
2022/08/26 18:01:38;;;;;;;10.43;5.00;;;;;;;22.48;47.50;97110.75;10333224;28;20475;-56
2022/08/26 18:06:38;;;;;;;12.50;5.55;;;;;;;22.30;47.65;97110.91;10329767;28;20085;-57
2022/08/26 18:11:39;;;;;;;12.75;5.07;;;;;;;22.18;47.85;97120.41;10330011;28;20076;-56
2022/08/26 18:16:40;;;;;;;13.40;5.78;;;;;;;22.03;48.55;97125.72;10332648;28;20069;-56
2022/08/26 18:21:39;;;;;;;10.13;5.47;;;;;;;21.91;48.89;97129.88;10331348;28;20168;-56
2022/08/26 18:26:40;;;;;;;11.07;5.97;;;;;;;21.71;49.30;97121.31;10326142;28;20097;-59
2022/08/26 18:31:39;;;;;;;14.20;5.78;;;;;;;21.57;49.31;97117.72;10310210;28;20081;-57
2022/08/26 18:36:39;;;;;;;17.77;6.45;;;;;;;21.44;49.76;97126.31;10322720;28;20081;-57
2022/08/26 18:41:56;;;;;;;15.18;6.07;;;;;;;21.39;50.55;97124.88;10313254;28;20068;-57
2022/08/26 18:46:55;;;;;;;12.63;5.40;;;;;;;21.17;51.40;97143.59;10317030;28;20088;-57
2022/08/26 18:51:53;;;;;;;10.73;4.80;;;;;;;21.03;51.10;97144.34;10318290;28;20041;-57
2022/08/26 18:56:52;;;;;;;15.48;5.20;;;;;;;20.95;51.75;97155.31;10330071;28;20470;-57
2022/08/26 19:01:51;;;;;;;18.35;5.97;;;;;;;20.83;52.88;97155.94;10326154;28;20032;-57
2022/08/26 19:06:51;;;;;;;16.60;7.93;;;;;;;20.60;56.50;97152.69;10289999;28;20025;-57
2022/08/26 19:11:50;;;;;;;17.58;8.10;;;;;;;20.49;58.02;97157.66;10289356;28;20069;-57
2022/08/26 19:16:51;;;;;;;14.20;8.57;;;;;;;20.33;58.30;97157.56;10329662;28;20038;-57
2022/08/26 19:21:51;;;;;;;14.77;7.68;;;;;;;20.22;58.22;97159.88;10330247;28;20112;-57
2022/08/26 19:26:54;;;;;;;12.93;6.38;;;;;;;20.19;58.12;97160.88;10328159;28;20084;-57
2022/08/26 19:31:53;;;;;;;13.55;6.65;;;;;;;20.10;58.80;97160.47;10326607;28;20061;-57
2022/08/26 19:36:53;;;;;;;17.98;7.75;;;;;;;20.00;60.76;97174.09;10324454;28;20123;-57
2022/08/26 19:41:52;;;;;;;19.95;8.02;;;;;;;19.86;62.51;97169.50;10323292;28;20076;-57
2022/08/26 19:46:51;;;;;;;17.77;8.13;;;;;;;19.73;64.16;97172.78;10329318;28;20083;-57
2022/08/26 19:51:51;;;;;;;16.42;7.40;;;;;;;19.59;65.67;97178.69;10329430;28;20043;-57
2022/08/26 19:56:50;;;;;;;15.70;8.00;;;;;;;19.49;66.83;97180.00;10328932;28;20091;-57
2022/08/26 20:01:49;;;;;;;16.15;7.70;;;;;;;19.41;67.18;97172.44;10315581;28;20068;-57
2022/08/26 20:06:48;;;;;;;17.92;7.45;;;;;;;19.36;67.47;97172.66;10329377;28;20056;-57
2022/08/26 20:11:48;;;;;;;15.23;7.10;;;;;;;19.32;67.77;97180.75;10327385;28;20079;-57
2022/08/26 20:16:48;;;;;;;17.25;7.75;;;;;;;19.27;68.36;97180.13;10327214;28;20069;-57
2022/08/26 20:21:47;;;;;;;17.40;8.27;;;;;;;19.22;68.79;97183.81;10324926;28;20088;-57
2022/08/26 20:26:46;;;;;;;17.00;8.15;;;;;;;19.16;69.39;97184.09;10324498;28;20526;-57
2022/08/26 20:31:46;;;;;;;18.00;7.68;;;;;;;19.10;70.29;97186.97;10324854;28;20124;-57
2022/08/26 20:36:47;;;;;;;15.50;6.18;;;;;;;19.00;69.84;97189.16;10327729;28;20512;-57
2022/08/26 20:41:47;;;;;;;14.15;6.78;;;;;;;18.92;69.50;97185.16;10327610;28;20065;-57
2022/08/26 20:46:46;;;;;;;12.82;6.65;;;;;;;18.87;69.87;97203.75;10329216;28;20095;-57
2022/08/26 20:51:50;;;;;;;15.90;6.75;;;;;;;18.77;68.85;97192.78;10331281;28;20529;-57
2022/08/26 20:56:49;;;;;;;14.40;5.60;;;;;;;18.70;68.40;97201.88;10331640;28;20499;-57
2022/08/26 21:01:48;;;;;;;12.48;7.00;;;;;;;18.61;68.71;97205.69;10336115;28;20399;-57
2022/08/26 21:06:48;;;;;;;13.85;6.97;;;;;;;18.50;71.13;97200.06;10339319;28;20069;-55
2022/08/26 21:11:47;;;;;;;12.70;6.43;;;;;;;18.45;71.79;97202.00;10338584;28;20084;-56
2022/08/26 21:16:46;;;;;;;14.13;6.15;;;;;;;18.34;72.32;97204.22;10337627;28;20541;-56
2022/08/26 21:21:47;;;;;;;13.23;6.13;;;;;;;18.24;72.75;97213.38;10338357;28;20092;-56
2022/08/26 21:26:46;;;;;;;15.48;6.45;;;;;;;18.12;72.92;97207.72;10337196;28;20076;-56
2022/08/26 21:31:45;;;;;;;12.45;6.10;;;;;;;18.02;73.69;97202.91;10337986;28;20081;-56
2022/08/26 21:36:45;;;;;;;12.98;6.60;;;;;;;17.85;74.45;97186.06;10337744;28;20029;-56
2022/08/26 21:41:46;;;;;;;13.00;6.55;;;;;;;17.82;74.85;97208.91;10336777;28;20053;-56
2022/08/26 21:46:45;;;;;;;19.38;8.38;;;;;;;17.80;75.24;97208.13;10334821;28;20088;-56
2022/08/26 21:51:47;;;;;;;15.45;7.15;;;;;;;17.74;76.41;97215.28;10333954;28;20068;-56
2022/08/26 21:56:47;;;;;;;12.45;7.35;;;;;;;17.61;77.68;97224.53;10332090;28;20073;-56
2022/08/26 22:01:46;;;;;;;18.55;7.72;;;;;;;17.56;77.89;97218.59;10332982;28;20477;-55
2022/08/26 22:06:51;;;;;;;17.52;7.40;;;;;;;17.52;77.86;97214.41;10333484;28;20080;-55
2022/08/26 22:11:51;;;;;;;15.82;6.80;;;;;;;17.49;77.81;97210.09;10331481;28;20072;-55
2022/08/26 22:16:50;;;;;;;15.02;6.85;;;;;;;17.47;78.25;97213.69;10329817;28;20064;-56
2022/08/26 22:21:51;;;;;;;15.52;7.13;;;;;;;17.40;78.91;97212.22;10328864;28;20104;-55
2022/08/26 22:26:50;;;;;;;13.93;7.30;;;;;;;17.31;80.26;97219.53;10328624;28;20096;-55
2022/08/26 22:31:49;;;;;;;12.82;7.22;;;;;;;17.20;81.03;97221.69;10330690;28;20065;-55
2022/08/26 22:36:49;;;;;;;15.57;7.82;;;;;;;17.10;81.57;97209.81;10332040;28;20076;-55
2022/08/26 22:41:49;;;;;;;15.13;7.00;;;;;;;16.97;82.11;97214.63;10331329;28;20065;-55
2022/08/26 22:46:52;;;;;;;13.73;6.95;;;;;;;16.85;82.45;97213.31;10330700;28;20085;-56
2022/08/26 22:51:51;;;;;;;11.05;6.07;;;;;;;16.78;82.71;97217.00;10331345;28;20069;-55
2022/08/26 22:56:50;;;;;;;14.38;7.10;;;;;;;16.74;82.93;97215.41;10331062;28;20487;-55
2022/08/26 23:01:50;;;;;;;;;;;;;;;16.70;83.29;97213.81;10330801;28;20399;-56
2022/08/26 23:06:49;;;;;;;12.85;7.47;;;;;;;16.63;83.79;97217.53;10331537;28;20346;-55